createdAt,value
2018-08-16T00:00:56.692Z,15.80
2018-08-16T00:03:24.986Z,15.70
2018-08-16T00:05:53.278Z,15.70
2018-08-16T00:08:21.577Z,15.70
2018-08-16T00:10:49.983Z,15.60
2018-08-16T00:13:18.401Z,15.60
2018-08-16T00:15:46.715Z,15.60
2018-08-16T00:18:15.033Z,15.60
2018-08-16T00:20:43.348Z,15.50
2018-08-16T00:23:11.639Z,15.50
2018-08-16T00:25:39.914Z,15.40
2018-08-16T00:28:08.209Z,15.40
2018-08-16T00:30:36.498Z,15.40
2018-08-16T00:33:04.846Z,15.30
2018-08-16T00:35:33.223Z,15.30
2018-08-16T00:38:01.554Z,15.30
2018-08-16T00:40:29.876Z,15.20
2018-08-16T00:42:58.165Z,15.20
2018-08-16T00:45:26.542Z,15.20
2018-08-16T00:47:54.860Z,15.20
2018-08-16T00:50:23.164Z,15.20
2018-08-16T00:52:51.457Z,15.20
2018-08-16T00:55:19.739Z,15.20
2018-08-16T00:57:48.061Z,15.30
2018-08-16T01:00:17.213Z,15.20
2018-08-16T01:02:45.983Z,15.30
2018-08-16T01:05:14.485Z,15.20
2018-08-16T01:07:42.838Z,15.20
2018-08-16T01:10:12.688Z,15.20
2018-08-16T01:12:41.656Z,15.10
2018-08-16T01:15:12.401Z,15.10
2018-08-16T01:17:40.976Z,15.00
2018-08-16T01:20:09.517Z,15.00
2018-08-16T01:22:37.769Z,14.90
2018-08-16T01:25:06.938Z,14.90
2018-08-16T01:27:35.619Z,14.90
2018-08-16T01:30:04.539Z,14.80
2018-08-16T01:32:32.818Z,14.80
2018-08-16T01:35:01.091Z,14.70
2018-08-16T01:37:29.404Z,14.70
2018-08-16T01:39:57.711Z,14.70
2018-08-16T01:42:26.015Z,14.70
2018-08-16T01:44:54.311Z,14.80
2018-08-16T01:47:22.589Z,14.80
2018-08-16T01:49:51.548Z,14.80
2018-08-16T01:52:19.801Z,14.80
2018-08-16T01:54:48.061Z,14.80
2018-08-16T01:57:16.356Z,14.80
2018-08-16T01:59:44.625Z,14.80
2018-08-16T02:02:12.916Z,14.80
2018-08-16T02:04:41.190Z,14.70
2018-08-16T02:07:09.477Z,14.70
2018-08-16T02:09:37.742Z,14.70
2018-08-16T02:12:06.676Z,14.70
2018-08-16T02:14:34.930Z,14.70
2018-08-16T02:17:03.242Z,14.60
2018-08-16T02:19:31.534Z,14.60
2018-08-16T02:21:59.842Z,14.60
2018-08-16T02:24:28.109Z,14.60
2018-08-16T02:26:56.418Z,14.50
2018-08-16T02:29:24.721Z,14.50
2018-08-16T02:31:53.041Z,14.50
2018-08-16T02:34:21.295Z,14.50
2018-08-16T02:36:49.563Z,14.50
2018-08-16T02:39:17.884Z,14.40
2018-08-16T02:41:46.203Z,14.40
2018-08-16T02:44:14.498Z,14.40
2018-08-16T02:46:42.817Z,14.40
2018-08-16T02:49:11.094Z,14.40
2018-08-16T02:51:39.362Z,14.40
2018-08-16T02:54:07.624Z,14.40
2018-08-16T02:56:35.954Z,14.40
2018-08-16T02:59:04.270Z,14.40
2018-08-16T03:01:32.539Z,14.40
2018-08-16T03:04:00.899Z,14.40
2018-08-16T03:06:29.162Z,14.30
2018-08-16T03:08:57.445Z,14.30
2018-08-16T03:11:25.936Z,14.30
2018-08-16T03:13:54.185Z,14.30
2018-08-16T03:16:22.478Z,14.30
2018-08-16T03:18:50.839Z,14.20
2018-08-16T03:21:19.149Z,14.20
2018-08-16T03:23:47.389Z,14.20
2018-08-16T03:26:15.703Z,14.20
2018-08-16T03:28:43.957Z,14.20
2018-08-16T03:31:12.250Z,14.10
2018-08-16T03:33:40.548Z,14.10
2018-08-16T03:36:08.859Z,14.10
2018-08-16T03:38:37.141Z,14.00
2018-08-16T03:41:05.425Z,13.90
2018-08-16T03:43:33.682Z,13.90
2018-08-16T03:46:01.981Z,13.90
2018-08-16T03:48:30.822Z,13.80
2018-08-16T03:50:59.115Z,13.80
2018-08-16T03:53:27.401Z,13.80
2018-08-16T03:55:55.759Z,13.80
2018-08-16T03:58:24.062Z,13.80
2018-08-16T04:00:52.349Z,13.80
2018-08-16T04:03:20.633Z,13.80
2018-08-16T04:05:48.901Z,13.80
2018-08-16T04:08:17.178Z,13.80
2018-08-16T04:10:45.462Z,13.80
2018-08-16T04:13:13.745Z,13.80
2018-08-16T04:15:42.001Z,13.80
2018-08-16T04:18:10.301Z,13.80
2018-08-16T04:20:38.574Z,13.70
2018-08-16T04:23:06.893Z,13.70
2018-08-16T04:25:35.166Z,13.70
2018-08-16T04:28:03.678Z,13.70
2018-08-16T04:30:31.943Z,13.80
2018-08-16T04:33:00.230Z,13.80
2018-08-16T04:35:28.525Z,13.80
2018-08-16T04:37:56.790Z,13.90
2018-08-16T04:40:25.069Z,13.90
2018-08-16T04:42:53.445Z,13.90
2018-08-16T04:45:21.773Z,13.90
2018-08-16T04:47:50.078Z,14.00
2018-08-16T04:50:18.414Z,14.00
2018-08-16T04:52:46.797Z,14.00
2018-08-16T04:55:15.114Z,14.00
2018-08-16T04:57:43.426Z,14.00
2018-08-16T05:00:13.030Z,14.10
2018-08-16T05:02:41.366Z,14.10
2018-08-16T05:05:09.989Z,14.20
2018-08-16T05:07:38.512Z,14.30
2018-08-16T05:10:08.066Z,14.40
2018-08-16T05:12:36.369Z,14.50
2018-08-16T05:15:07.301Z,14.60
2018-08-16T05:17:35.781Z,14.70
2018-08-16T05:20:05.437Z,14.80
2018-08-16T05:22:33.732Z,14.90
2018-08-16T05:25:02.034Z,15.00
2018-08-16T05:27:30.329Z,15.20
2018-08-16T05:29:58.574Z,15.30
2018-08-16T05:32:26.910Z,15.50
2018-08-16T05:34:55.206Z,15.60
2018-08-16T05:37:23.564Z,15.80
2018-08-16T05:39:51.857Z,15.90
2018-08-16T05:42:20.191Z,16.00
2018-08-16T05:44:48.536Z,16.10
2018-08-16T05:47:16.821Z,16.20
2018-08-16T05:49:45.110Z,16.30
2018-08-16T05:52:13.409Z,16.40
2018-08-16T05:54:41.681Z,16.60
2018-08-16T05:57:10.035Z,16.70
2018-08-16T05:59:38.332Z,16.80
2018-08-16T06:02:07.178Z,16.90
2018-08-16T06:04:35.545Z,17.00
2018-08-16T06:07:04.084Z,17.20
2018-08-16T06:09:32.334Z,17.20
2018-08-16T06:12:00.584Z,17.40
2018-08-16T06:14:28.970Z,17.50
2018-08-16T06:16:57.279Z,17.70
2018-08-16T06:19:25.605Z,17.80
2018-08-16T06:21:53.925Z,18.00
2018-08-16T06:24:22.342Z,18.10
2018-08-16T06:26:50.621Z,18.30
2018-08-16T06:29:18.920Z,18.30
2018-08-16T06:31:47.257Z,18.30
2018-08-16T06:34:15.490Z,18.60
2018-08-16T06:36:43.786Z,18.70
2018-08-16T06:39:13.080Z,18.90
2018-08-16T06:41:41.814Z,18.80
2018-08-16T06:44:10.414Z,19.00
2018-08-16T06:46:38.778Z,19.20
2018-08-16T06:49:07.683Z,19.40
2018-08-16T06:51:36.016Z,19.50
2018-08-16T06:54:04.290Z,19.70
2018-08-16T06:56:32.577Z,19.80
2018-08-16T06:59:00.834Z,20.00
2018-08-16T07:01:29.107Z,20.10
2018-08-16T07:03:57.410Z,20.20
2018-08-16T07:06:25.677Z,20.30
2018-08-16T07:08:54.099Z,20.40
2018-08-16T07:11:22.478Z,20.60
2018-08-16T07:13:50.845Z,20.80
2018-08-16T07:16:19.253Z,20.90
2018-08-16T07:18:47.638Z,21.10
2018-08-16T07:21:16.002Z,21.10
2018-08-16T07:23:44.297Z,21.00
2018-08-16T07:26:12.587Z,21.10
2018-08-16T07:28:40.957Z,21.40
2018-08-16T07:31:09.213Z,21.60
2018-08-16T07:33:37.601Z,21.50
2018-08-16T07:36:05.901Z,21.80
2018-08-16T07:38:34.173Z,22.00
2018-08-16T07:41:02.457Z,22.10
2018-08-16T07:43:31.010Z,22.30
2018-08-16T07:45:59.345Z,22.50
2018-08-16T07:48:27.606Z,22.80
2018-08-16T07:50:55.893Z,22.80
2018-08-16T07:53:24.166Z,23.10
2018-08-16T07:55:52.418Z,23.40
2018-08-16T07:58:20.795Z,23.80
2018-08-16T08:00:49.041Z,24.20
2018-08-16T08:03:17.531Z,24.80
2018-08-16T08:05:45.786Z,24.90
2018-08-16T08:08:14.106Z,25.20
2018-08-16T08:10:42.363Z,26.30
2018-08-16T08:13:10.668Z,27.30
2018-08-16T08:15:39.094Z,28.90
2018-08-16T08:18:07.885Z,29.90
2018-08-16T08:20:36.192Z,31.70
2018-08-16T08:23:04.472Z,32.30
2018-08-16T08:25:32.880Z,32.90
2018-08-16T08:28:01.161Z,33.00
2018-08-16T08:30:29.413Z,33.30
2018-08-16T08:32:57.717Z,33.50
2018-08-16T08:35:26.026Z,33.50
2018-08-16T08:38:18.010Z,33.70
2018-08-16T08:40:46.262Z,33.40
2018-08-16T08:43:24.328Z,33.70
2018-08-16T08:45:52.614Z,33.30
2018-08-16T08:48:20.943Z,32.10
2018-08-16T08:50:49.222Z,30.90
2018-08-16T08:53:28.945Z,30.50
2018-08-16T08:56:08.551Z,30.20
2018-08-16T08:58:48.015Z,29.90
2018-08-16T09:01:16.316Z,29.60
2018-08-16T09:03:44.622Z,30.20
2018-08-16T09:06:12.928Z,29.80
2018-08-16T09:08:41.207Z,29.90
2018-08-16T09:11:21.512Z,30.10
2018-08-16T09:14:05.680Z,29.90
2018-08-16T09:16:35.158Z,29.60
2018-08-16T09:19:03.962Z,30.00
2018-08-16T09:21:32.638Z,29.90
2018-08-16T09:24:00.968Z,29.90
2018-08-16T09:26:34.770Z,29.80
2018-08-16T09:29:07.565Z,29.90
2018-08-16T09:31:47.179Z,30.60
2018-08-16T09:34:19.776Z,31.90
2018-08-16T09:36:48.106Z,33.40
2018-08-16T09:39:16.398Z,33.60
2018-08-16T09:41:44.701Z,33.50
2018-08-16T09:44:13.050Z,32.30
2018-08-16T09:47:00.441Z,31.90
2018-08-16T09:49:30.091Z,32.20
2018-08-16T09:51:58.378Z,32.60
2018-08-16T09:54:26.742Z,33.50
2018-08-16T09:56:56.147Z,34.40
2018-08-16T09:59:24.639Z,34.60
2018-08-16T10:01:52.966Z,34.40
2018-08-16T10:04:21.294Z,34.30
2018-08-16T10:06:49.739Z,34.20
2018-08-16T10:09:22.289Z,34.30
2018-08-16T10:11:50.749Z,35.00
2018-08-16T10:14:19.408Z,35.40
2018-08-16T10:16:47.950Z,35.80
2018-08-16T10:19:16.247Z,36.40
2018-08-16T10:21:44.573Z,37.00
2018-08-16T10:24:12.874Z,37.50
2018-08-16T10:26:41.153Z,36.90
2018-08-16T10:29:09.997Z,37.50
2018-08-16T10:31:38.370Z,37.80
2018-08-16T10:34:06.682Z,38.00
2018-08-16T10:36:34.995Z,37.60
2018-08-16T10:39:04.647Z,37.40
2018-08-16T10:41:32.928Z,36.70
2018-08-16T10:44:01.187Z,36.50
2018-08-16T10:46:29.489Z,36.20
2018-08-16T10:48:57.946Z,35.80
2018-08-16T10:51:26.208Z,34.60
2018-08-16T10:53:54.467Z,33.50
2018-08-16T10:56:22.835Z,32.20
2018-08-16T10:58:51.172Z,31.30
2018-08-16T11:01:19.502Z,30.60
2018-08-16T11:03:47.713Z,29.90
2018-08-16T11:06:16.130Z,29.40
2018-08-16T11:08:44.435Z,29.20
2018-08-16T11:11:12.804Z,29.00
2018-08-16T11:13:41.127Z,29.00
2018-08-16T11:16:09.389Z,28.90
2018-08-16T11:18:37.669Z,28.90
2018-08-16T11:21:06.101Z,28.90
2018-08-16T11:23:34.409Z,28.70
2018-08-16T11:26:02.694Z,28.70
2018-08-16T11:28:30.957Z,28.50
2018-08-16T11:30:59.264Z,28.40
2018-08-16T11:33:27.557Z,28.40
2018-08-16T11:35:55.861Z,28.40
2018-08-16T11:38:24.116Z,28.40
2018-08-16T11:40:52.441Z,28.40
2018-08-16T11:43:20.750Z,28.30
2018-08-16T11:45:49.070Z,28.30
2018-08-16T11:48:17.457Z,28.20
2018-08-16T11:50:45.718Z,28.20
2018-08-16T11:53:13.974Z,28.20
2018-08-16T11:55:42.221Z,28.20
2018-08-16T11:58:10.527Z,28.10
2018-08-16T12:00:38.812Z,28.10
2018-08-16T12:03:07.224Z,28.10
2018-08-16T12:05:35.486Z,28.00
2018-08-16T12:08:03.766Z,28.00
2018-08-16T12:10:32.141Z,28.00
2018-08-16T12:13:00.413Z,28.00
2018-08-16T12:15:28.695Z,28.00
2018-08-16T12:17:56.991Z,28.10
2018-08-16T12:20:25.384Z,28.10
2018-08-16T12:22:53.755Z,28.10
2018-08-16T12:25:22.099Z,28.00
2018-08-16T12:27:50.430Z,28.00
2018-08-16T12:30:18.770Z,27.90
2018-08-16T12:32:47.038Z,28.00
2018-08-16T12:35:15.293Z,28.00
2018-08-16T12:37:43.735Z,28.00
2018-08-16T12:40:11.992Z,28.00
2018-08-16T12:42:40.314Z,28.10
2018-08-16T12:45:08.598Z,28.00
2018-08-16T12:47:36.971Z,28.10
2018-08-16T12:50:06.050Z,28.10
2018-08-16T12:52:34.390Z,28.10
2018-08-16T12:55:02.653Z,28.10
2018-08-16T12:57:30.961Z,28.00
2018-08-16T12:59:59.281Z,27.90
2018-08-16T13:02:27.538Z,27.80
2018-08-16T13:04:55.789Z,27.80
2018-08-16T13:07:24.063Z,27.80
2018-08-16T13:09:52.306Z,27.80
2018-08-16T13:12:20.716Z,27.90
2018-08-16T13:14:49.044Z,27.90
2018-08-16T13:17:17.269Z,27.90
2018-08-16T13:19:45.543Z,27.90
2018-08-16T13:22:13.970Z,27.90
2018-08-16T13:24:42.242Z,27.90
2018-08-16T13:27:10.529Z,27.80
2018-08-16T13:29:38.808Z,27.80
2018-08-16T13:32:07.151Z,27.70
2018-08-16T13:34:35.434Z,27.60
2018-08-16T13:37:03.762Z,27.50
2018-08-16T13:39:31.976Z,27.60
2018-08-16T13:42:00.244Z,27.60
2018-08-16T13:44:28.582Z,27.60
2018-08-16T13:46:56.920Z,27.70
2018-08-16T13:49:25.222Z,27.70
2018-08-16T13:51:53.513Z,27.70
2018-08-16T13:54:21.778Z,27.80
2018-08-16T13:56:50.120Z,27.80
2018-08-16T13:59:18.426Z,27.80
2018-08-16T14:01:46.755Z,27.70
2018-08-16T14:04:14.961Z,27.80
2018-08-16T14:06:43.294Z,27.80
2018-08-16T14:09:12.532Z,27.80
2018-08-16T14:11:40.902Z,27.80
2018-08-16T14:14:09.167Z,27.80
2018-08-16T14:16:37.410Z,27.70
2018-08-16T14:19:06.110Z,27.70
2018-08-16T14:21:34.377Z,27.70
2018-08-16T14:24:02.761Z,27.70
2018-08-16T14:26:31.021Z,27.80
2018-08-16T14:28:59.299Z,27.80
2018-08-16T14:31:27.643Z,27.80
2018-08-16T14:33:56.038Z,27.80
2018-08-16T14:36:24.314Z,27.70
2018-08-16T14:38:52.746Z,27.60
2018-08-16T14:41:20.929Z,27.60
2018-08-16T14:43:49.210Z,27.70
2018-08-16T14:46:17.507Z,27.70
2018-08-16T14:48:45.766Z,27.80
2018-08-16T14:51:14.035Z,27.80
2018-08-16T14:53:42.354Z,27.80
2018-08-16T14:56:10.726Z,27.80
2018-08-16T14:58:39.022Z,27.70
2018-08-16T15:01:07.295Z,27.70
2018-08-16T15:03:35.641Z,27.70
2018-08-16T15:06:03.905Z,27.80
2018-08-16T15:08:32.166Z,27.80
2018-08-16T15:11:00.442Z,27.80
2018-08-16T15:13:28.717Z,27.80
2018-08-16T15:15:56.994Z,27.80
2018-08-16T15:18:25.257Z,27.80
2018-08-16T15:20:53.531Z,27.80
2018-08-16T15:23:21.801Z,27.90
2018-08-16T15:25:50.062Z,28.00
2018-08-16T15:28:19.361Z,28.00
2018-08-16T15:30:47.706Z,27.90
2018-08-16T15:33:16.005Z,27.80
2018-08-16T15:35:44.394Z,27.70
2018-08-16T15:38:12.663Z,27.70
2018-08-16T15:40:40.918Z,27.70
2018-08-16T15:43:09.183Z,27.70
2018-08-16T15:45:37.442Z,27.70
2018-08-16T15:48:10.203Z,27.60
2018-08-16T15:50:38.438Z,27.60
2018-08-16T15:53:07.251Z,27.70
2018-08-16T15:55:35.739Z,27.70
2018-08-16T15:58:04.065Z,27.70
2018-08-16T16:00:32.342Z,27.80
2018-08-16T16:03:00.646Z,27.80
2018-08-16T16:05:28.973Z,27.80
2018-08-16T16:07:57.330Z,27.60
2018-08-16T16:10:26.006Z,27.60
2018-08-16T16:12:54.278Z,27.60
2018-08-16T16:15:22.525Z,27.50
2018-08-16T16:17:50.815Z,27.50
2018-08-16T16:20:19.106Z,27.40
2018-08-16T16:22:47.345Z,27.30
2018-08-16T16:25:15.626Z,27.30
2018-08-16T16:27:43.894Z,27.20
2018-08-16T16:30:12.217Z,27.30
2018-08-16T16:32:40.493Z,27.30
2018-08-16T16:35:09.029Z,27.30
2018-08-16T16:37:37.273Z,27.20
2018-08-16T16:40:06.374Z,27.20
2018-08-16T16:42:34.617Z,27.20
2018-08-16T16:45:03.070Z,27.20
2018-08-16T16:47:31.218Z,27.20
2018-08-16T16:49:59.505Z,27.20
2018-08-16T16:52:27.792Z,27.20
2018-08-16T16:54:56.247Z,27.20
2018-08-16T16:57:24.513Z,27.20
2018-08-16T16:59:52.787Z,27.10
2018-08-16T17:02:21.081Z,27.00
2018-08-16T17:04:49.358Z,26.90
2018-08-16T17:07:17.615Z,27.00
2018-08-16T17:09:45.881Z,27.10
2018-08-16T17:12:14.191Z,27.10
2018-08-16T17:14:42.565Z,27.10
2018-08-16T17:17:11.032Z,27.00
2018-08-16T17:19:39.289Z,26.90
2018-08-16T17:22:08.048Z,26.80
2018-08-16T17:24:36.492Z,26.70
2018-08-16T17:27:04.742Z,26.50
2018-08-16T17:29:33.006Z,26.40
2018-08-16T17:32:01.334Z,26.30
2018-08-16T17:34:29.567Z,26.30
2018-08-16T17:36:57.822Z,26.20
2018-08-16T17:39:26.094Z,26.20
2018-08-16T17:41:54.350Z,26.10
2018-08-16T17:44:22.711Z,26.10
2018-08-16T17:46:50.965Z,26.00
2018-08-16T17:49:19.293Z,26.00
2018-08-16T17:51:47.547Z,25.90
2018-08-16T17:54:15.809Z,25.90
2018-08-16T17:56:44.052Z,25.80
2018-08-16T17:59:12.337Z,25.70
2018-08-16T18:01:40.599Z,25.70
2018-08-16T18:04:08.881Z,25.50
2018-08-16T18:06:37.127Z,25.40
2018-08-16T18:09:06.833Z,25.30
2018-08-16T18:11:35.097Z,25.10
2018-08-16T18:14:03.373Z,25.00
2018-08-16T18:16:31.650Z,24.90
2018-08-16T18:18:59.913Z,24.70
2018-08-16T18:21:28.178Z,24.70
2018-08-16T18:23:56.477Z,24.50
2018-08-16T18:26:24.742Z,24.40
2018-08-16T18:28:53.003Z,24.30
2018-08-16T18:31:21.314Z,24.30
2018-08-16T18:33:49.587Z,24.10
2018-08-16T18:36:17.881Z,24.10
2018-08-16T18:38:46.148Z,24.00
2018-08-16T18:41:14.436Z,23.90
2018-08-16T18:43:42.687Z,23.80
2018-08-16T18:46:10.956Z,23.80
2018-08-16T18:48:39.196Z,23.80
2018-08-16T18:51:07.548Z,23.80
2018-08-16T18:53:35.914Z,23.70
2018-08-16T18:56:04.145Z,23.60
2018-08-16T18:58:32.412Z,23.50
2018-08-16T19:01:00.685Z,23.50
2018-08-16T19:03:28.941Z,23.40
2018-08-16T19:05:57.300Z,23.40
2018-08-16T19:08:25.535Z,23.40
2018-08-16T19:10:53.807Z,23.40
2018-08-16T19:13:22.376Z,23.40
2018-08-16T19:15:50.410Z,23.30
2018-08-16T19:18:18.649Z,23.20
2018-08-16T19:20:46.920Z,23.20
2018-08-16T19:23:15.169Z,23.10
2018-08-16T19:25:43.439Z,23.00
2018-08-16T19:28:11.698Z,22.90
2018-08-16T19:30:39.953Z,22.80
2018-08-16T19:33:08.209Z,22.80
2018-08-16T19:35:36.529Z,22.70
2018-08-16T19:38:04.773Z,22.60
2018-08-16T19:40:33.025Z,22.60
2018-08-16T19:43:01.281Z,22.50
2018-08-16T19:45:29.543Z,22.40
2018-08-16T19:47:57.875Z,22.30
2018-08-16T19:50:26.074Z,22.20
2018-08-16T19:52:54.320Z,22.10
2018-08-16T19:55:22.577Z,22.10
2018-08-16T19:57:50.891Z,22.00
2018-08-16T20:00:19.174Z,22.00
2018-08-16T20:02:47.479Z,21.90
2018-08-16T20:05:15.695Z,21.80
2018-08-16T20:07:43.973Z,21.70
2018-08-16T20:10:12.431Z,21.60
2018-08-16T20:12:40.672Z,21.40
2018-08-16T20:15:09.600Z,21.20
2018-08-16T20:17:37.869Z,21.20
2018-08-16T20:20:06.881Z,21.10
2018-08-16T20:22:35.135Z,21.10
2018-08-16T20:25:03.508Z,21.00
2018-08-16T20:27:31.686Z,21.00
2018-08-16T20:29:59.945Z,21.00
2018-08-16T20:32:28.261Z,21.00
2018-08-16T20:34:56.497Z,20.90
2018-08-16T20:37:24.756Z,20.90
2018-08-16T20:39:53.152Z,20.90
2018-08-16T20:42:21.418Z,20.90
2018-08-16T20:44:49.676Z,20.80
2018-08-16T20:47:17.986Z,20.80
2018-08-16T20:49:46.247Z,20.70
2018-08-16T20:52:14.507Z,20.70
2018-08-16T20:54:42.748Z,20.70
2018-08-16T20:57:11.056Z,20.70
2018-08-16T20:59:39.353Z,20.80
2018-08-16T21:02:07.606Z,20.80
2018-08-16T21:04:35.876Z,20.80
2018-08-16T21:07:04.149Z,20.80
2018-08-16T21:09:32.484Z,20.70
2018-08-16T21:12:00.741Z,20.70
2018-08-16T21:14:29.893Z,20.60
2018-08-16T21:16:58.211Z,20.60
2018-08-16T21:19:26.636Z,20.50
2018-08-16T21:21:54.902Z,20.60
2018-08-16T21:24:23.142Z,20.60
2018-08-16T21:26:51.594Z,20.50
2018-08-16T21:29:19.857Z,20.40
2018-08-16T21:31:48.140Z,20.30
2018-08-16T21:34:16.397Z,20.20
2018-08-16T21:36:44.652Z,20.10
2018-08-16T21:39:13.161Z,20.10
2018-08-16T21:41:41.466Z,20.10
2018-08-16T21:44:10.658Z,20.10
2018-08-16T21:46:38.946Z,20.10
2018-08-16T21:49:07.305Z,20.00
2018-08-16T21:51:35.561Z,19.90
2018-08-16T21:54:03.848Z,19.80
2018-08-16T21:56:32.104Z,19.80
2018-08-16T21:59:00.382Z,19.70
2018-08-16T22:01:28.702Z,19.70
2018-08-16T22:03:56.945Z,19.70
2018-08-16T22:06:36.618Z,19.70
2018-08-16T22:09:06.629Z,19.60
2018-08-16T22:11:34.913Z,19.60
2018-08-16T22:14:03.170Z,19.60
2018-08-16T22:16:31.449Z,19.50
2018-08-16T22:18:59.705Z,19.50
2018-08-16T22:21:27.975Z,19.50
2018-08-16T22:23:56.225Z,19.50
2018-08-16T22:26:24.529Z,19.50
2018-08-16T22:28:52.776Z,19.40
2018-08-16T22:31:21.029Z,19.40
2018-08-16T22:33:49.380Z,19.30
2018-08-16T22:36:17.629Z,19.30
2018-08-16T22:38:45.901Z,19.30
2018-08-16T22:41:14.200Z,19.20
2018-08-16T22:43:42.478Z,19.20
2018-08-16T22:46:10.721Z,19.20
2018-08-16T22:48:38.980Z,19.20
2018-08-16T22:51:07.236Z,19.10
2018-08-16T22:53:35.628Z,19.10
2018-08-16T22:56:03.984Z,19.00
2018-08-16T22:58:32.265Z,19.00
2018-08-16T23:01:00.525Z,19.00
2018-08-16T23:03:28.823Z,18.90
2018-08-16T23:05:57.058Z,18.90
2018-08-16T23:08:25.394Z,18.90
2018-08-16T23:10:53.666Z,18.90
2018-08-16T23:13:21.925Z,18.80
2018-08-16T23:15:50.198Z,18.80
2018-08-16T23:18:18.486Z,18.80
2018-08-16T23:20:46.733Z,18.80
2018-08-16T23:23:15.001Z,18.80
2018-08-16T23:25:43.245Z,18.70
2018-08-16T23:28:11.538Z,18.70
2018-08-16T23:30:39.785Z,18.70
2018-08-16T23:33:08.370Z,18.70
2018-08-16T23:35:36.637Z,18.70
2018-08-16T23:38:04.901Z,18.60
2018-08-16T23:40:33.158Z,18.60
2018-08-16T23:43:01.429Z,18.60
2018-08-16T23:45:29.722Z,18.60
2018-08-16T23:48:09.385Z,18.60
2018-08-16T23:50:37.641Z,18.60
2018-08-16T23:53:06.081Z,18.60
2018-08-16T23:55:34.354Z,18.60
2018-08-16T23:58:02.663Z,18.60
